Tisbury, United Kingdom
Current Conditions -  °F | °C
As of 3:50 PM on Tuesday 21 Oct 2014 (Local Time) from EGDM Reporting Station
Few Clouds Few Clouds  
Wind Chill: 12°   Ceiling: Unl
Heat Index: 12°   Visibility: 6mi
Dew Point:   Wind: 25mph
Humidity: 62%   Direction: 290°WNW
Pressure: 29.88"   Gusts: 41mph
Location:  51.06°N, 2.08°W
Report Text: EGDM 211450Z 29022G36KT 9999 FEW040 12/05 Q1012 BLU NOSIG
Loading
Personal Weather Stations






























Interactive Weather Map
Tropical Storm Tracking
New forecast layout! Learn more

10-Day Weather Forecast

Advertisements
Track Severe Weather on mobile